sensor_id;sensor_type;location;lat;lon;timestamp;temperature;humidity
30572;DHT22;17348;50.948;10.696;2023-03-31T00:02:28;10.40;99.90
30572;DHT22;17348;50.948;10.696;2023-03-31T00:05:31;10.40;99.90
30572;DHT22;17348;50.948;10.696;2023-03-31T00:08:37;10.40;99.90
30572;DHT22;17348;50.948;10.696;2023-03-31T00:11:40;10.40;99.90
30572;DHT22;17348;50.948;10.696;2023-03-31T00:14:43;10.40;99.90
30572;DHT22;17348;50.948;10.696;2023-03-31T00:17:45;10.30;99.90
30572;DHT22;17348;50.948;10.696;2023-03-31T00:20:49;10.30;99.90
30572;DHT22;17348;50.948;10.696;2023-03-31T00:23:54;10.30;99.90
30572;DHT22;17348;50.948;10.696;2023-03-31T00:26:57;10.30;99.90
30572;DHT22;17348;50.948;10.696;2023-03-31T00:29:59;10.30;99.90
30572;DHT22;17348;50.948;10.696;2023-03-31T00:33:02;10.30;99.90
30572;DHT22;17348;50.948;10.696;2023-03-31T00:36:06;10.40;99.90
30572;DHT22;17348;50.948;10.696;2023-03-31T00:39:09;10.40;99.90
30572;DHT22;17348;50.948;10.696;2023-03-31T00:42:11;10.40;99.90
30572;DHT22;17348;50.948;10.696;2023-03-31T00:45:22;10.40;99.90
30572;DHT22;17348;50.948;10.696;2023-03-31T00:48:27;10.40;99.90
30572;DHT22;17348;50.948;10.696;2023-03-31T00:51:32;10.40;99.90
30572;DHT22;17348;50.948;10.696;2023-03-31T00:54:35;10.50;99.90
30572;DHT22;17348;50.948;10.696;2023-03-31T00:57:40;10.40;99.90
30572;DHT22;17348;50.948;10.696;2023-03-31T01:00:43;10.50;99.90
30572;DHT22;17348;50.948;10.696;2023-03-31T01:03:46;10.50;99.90
30572;DHT22;17348;50.948;10.696;2023-03-31T01:06:55;10.50;99.90
30572;DHT22;17348;50.948;10.696;2023-03-31T01:10:02;10.50;99.90
30572;DHT22;17348;50.948;10.696;2023-03-31T01:13:05;10.60;99.90
30572;DHT22;17348;50.948;10.696;2023-03-31T01:16:08;10.60;99.90
30572;DHT22;17348;50.948;10.696;2023-03-31T01:19:16;10.60;99.90
30572;DHT22;17348;50.948;10.696;2023-03-31T01:22:46;10.60;99.90
30572;DHT22;17348;50.948;10.696;2023-03-31T01:26:41;10.50;99.90
30572;DHT22;17348;50.948;10.696;2023-03-31T01:30:23;10.50;99.90
30572;DHT22;17348;50.948;10.696;2023-03-31T01:37:32;10.40;99.90
30572;DHT22;17348;50.948;10.696;2023-03-31T01:40:55;10.30;99.90
30572;DHT22;17348;50.948;10.696;2023-03-31T01:44:06;10.30;99.90
30572;DHT22;17348;50.948;10.696;2023-03-31T01:47:13;10.30;99.90
30572;DHT22;17348;50.948;10.696;2023-03-31T01:50:22;10.30;99.90
30572;DHT22;17348;50.948;10.696;2023-03-31T01:53:31;10.30;99.90
30572;DHT22;17348;50.948;10.696;2023-03-31T01:56:38;10.30;99.90
30572;DHT22;17348;50.948;10.696;2023-03-31T01:59:47;10.30;99.90
30572;DHT22;17348;50.948;10.696;2023-03-31T02:02:56;10.30;99.90
30572;DHT22;17348;50.948;10.696;2023-03-31T02:06:04;10.40;99.90
30572;DHT22;17348;50.948;10.696;2023-03-31T02:09:11;10.50;99.90
30572;DHT22;17348;50.948;10.696;2023-03-31T02:12:18;10.50;99.90
30572;DHT22;17348;50.948;10.696;2023-03-31T02:15:25;10.60;99.90
30572;DHT22;17348;50.948;10.696;2023-03-31T02:18:30;10.60;99.90
30572;DHT22;17348;50.948;10.696;2023-03-31T02:21:39;10.60;99.90
30572;DHT22;17348;50.948;10.696;2023-03-31T02:24:42;10.60;99.90
30572;DHT22;17348;50.948;10.696;2023-03-31T02:27:50;10.50;99.90
30572;DHT22;17348;50.948;10.696;2023-03-31T02:31:03;10.60;99.90
30572;DHT22;17348;50.948;10.696;2023-03-31T02:34:07;10.60;99.90
30572;DHT22;17348;50.948;10.696;2023-03-31T02:37:10;10.60;99.90
30572;DHT22;17348;50.948;10.696;2023-03-31T02:40:17;10.60;99.90
30572;DHT22;17348;50.948;10.696;2023-03-31T02:43:21;10.60;99.90
30572;DHT22;17348;50.948;10.696;2023-03-31T02:46:24;10.60;99.90
30572;DHT22;17348;50.948;10.696;2023-03-31T02:49:27;10.60;99.90
30572;DHT22;17348;50.948;10.696;2023-03-31T02:52:49;10.60;99.90
30572;DHT22;17348;50.948;10.696;2023-03-31T02:56:03;10.60;99.90
30572;DHT22;17348;50.948;10.696;2023-03-31T02:59:23;10.60;99.90
30572;DHT22;17348;50.948;10.696;2023-03-31T03:02:38;10.60;99.90
30572;DHT22;17348;50.948;10.696;2023-03-31T03:05:48;10.60;99.90
30572;DHT22;17348;50.948;10.696;2023-03-31T03:09:07;10.70;99.90
30572;DHT22;17348;50.948;10.696;2023-03-31T03:12:15;10.70;99.90
30572;DHT22;17348;50.948;10.696;2023-03-31T03:15:23;10.70;99.90
30572;DHT22;17348;50.948;10.696;2023-03-31T03:18:26;10.70;99.90
30572;DHT22;17348;50.948;10.696;2023-03-31T03:21:29;10.70;99.90
30572;DHT22;17348;50.948;10.696;2023-03-31T03:24:32;10.70;99.90
30572;DHT22;17348;50.948;10.696;2023-03-31T03:27:34;10.60;99.90
30572;DHT22;17348;50.948;10.696;2023-03-31T03:30:38;10.60;99.90
30572;DHT22;17348;50.948;10.696;2023-03-31T03:33:41;10.60;99.90
30572;DHT22;17348;50.948;10.696;2023-03-31T03:36:43;10.60;99.90
30572;DHT22;17348;50.948;10.696;2023-03-31T03:39:46;10.50;99.90
30572;DHT22;17348;50.948;10.696;2023-03-31T03:42:48;10.50;99.90
30572;DHT22;17348;50.948;10.696;2023-03-31T03:45:52;10.40;99.90
30572;DHT22;17348;50.948;10.696;2023-03-31T03:48:54;10.40;99.90
30572;DHT22;17348;50.948;10.696;2023-03-31T03:51:57;10.40;99.90
30572;DHT22;17348;50.948;10.696;2023-03-31T03:54:59;10.40;99.90
30572;DHT22;17348;50.948;10.696;2023-03-31T03:58:01;10.40;99.90
30572;DHT22;17348;50.948;10.696;2023-03-31T04:01:05;10.40;99.90
30572;DHT22;17348;50.948;10.696;2023-03-31T04:04:07;10.30;99.90
30572;DHT22;17348;50.948;10.696;2023-03-31T04:07:10;10.30;99.90
30572;DHT22;17348;50.948;10.696;2023-03-31T04:10:12;10.30;99.90
30572;DHT22;17348;50.948;10.696;2023-03-31T04:13:15;10.30;99.90
30572;DHT22;17348;50.948;10.696;2023-03-31T04:16:19;10.20;99.90
30572;DHT22;17348;50.948;10.696;2023-03-31T04:19:23;10.20;99.90
30572;DHT22;17348;50.948;10.696;2023-03-31T04:22:25;10.30;99.90
30572;DHT22;17348;50.948;10.696;2023-03-31T04:25:29;10.30;99.90
30572;DHT22;17348;50.948;10.696;2023-03-31T04:28:31;10.20;99.90
30572;DHT22;17348;50.948;10.696;2023-03-31T04:31:36;10.20;99.90
30572;DHT22;17348;50.948;10.696;2023-03-31T04:34:42;10.10;99.90
30572;DHT22;17348;50.948;10.696;2023-03-31T04:37:46;10.10;99.90
30572;DHT22;17348;50.948;10.696;2023-03-31T04:40:50;10.00;99.90
30572;DHT22;17348;50.948;10.696;2023-03-31T04:43:53;10.00;99.90
30572;DHT22;17348;50.948;10.696;2023-03-31T04:46:57;10.00;99.90
30572;DHT22;17348;50.948;10.696;2023-03-31T04:50:03;10.00;99.90
30572;DHT22;17348;50.948;10.696;2023-03-31T04:53:06;9.90;99.90
30572;DHT22;17348;50.948;10.696;2023-03-31T04:56:08;9.90;99.90
30572;DHT22;17348;50.948;10.696;2023-03-31T04:59:11;9.90;99.90
30572;DHT22;17348;50.948;10.696;2023-03-31T05:02:14;9.90;99.90
30572;DHT22;17348;50.948;10.696;2023-03-31T05:05:23;10.00;99.90
30572;DHT22;17348;50.948;10.696;2023-03-31T05:08:26;10.00;99.90
30572;DHT22;17348;50.948;10.696;2023-03-31T05:11:28;10.00;99.90
30572;DHT22;17348;50.948;10.696;2023-03-31T05:14:30;10.10;99.90
30572;DHT22;17348;50.948;10.696;2023-03-31T05:17:35;10.10;99.90
30572;DHT22;17348;50.948;10.696;2023-03-31T05:20:38;10.10;99.90
30572;DHT22;17348;50.948;10.696;2023-03-31T05:23:40;10.10;99.90
30572;DHT22;17348;50.948;10.696;2023-03-31T05:26:43;10.00;99.90
30572;DHT22;17348;50.948;10.696;2023-03-31T05:29:49;10.10;99.90
30572;DHT22;17348;50.948;10.696;2023-03-31T05:32:53;10.10;99.90
30572;DHT22;17348;50.948;10.696;2023-03-31T05:35:57;10.10;99.90
30572;DHT22;17348;50.948;10.696;2023-03-31T05:39:00;10.10;99.90
30572;DHT22;17348;50.948;10.696;2023-03-31T05:42:03;10.20;99.90
30572;DHT22;17348;50.948;10.696;2023-03-31T05:45:07;10.20;99.90
30572;DHT22;17348;50.948;10.696;2023-03-31T05:48:11;10.20;99.90
30572;DHT22;17348;50.948;10.696;2023-03-31T05:51:13;10.30;99.90
30572;DHT22;17348;50.948;10.696;2023-03-31T05:54:15;10.30;99.90
30572;DHT22;17348;50.948;10.696;2023-03-31T05:57:18;10.40;99.90
30572;DHT22;17348;50.948;10.696;2023-03-31T06:00:20;10.40;99.90
30572;DHT22;17348;50.948;10.696;2023-03-31T06:03:24;10.40;99.90
30572;DHT22;17348;50.948;10.696;2023-03-31T06:06:27;10.50;99.90
30572;DHT22;17348;50.948;10.696;2023-03-31T06:09:29;10.50;99.90
30572;DHT22;17348;50.948;10.696;2023-03-31T06:12:32;10.70;99.90
30572;DHT22;17348;50.948;10.696;2023-03-31T06:15:34;10.80;99.90
30572;DHT22;17348;50.948;10.696;2023-03-31T06:18:38;10.90;99.90
30572;DHT22;17348;50.948;10.696;2023-03-31T06:21:41;10.90;99.90
30572;DHT22;17348;50.948;10.696;2023-03-31T06:24:43;11.00;99.90
30572;DHT22;17348;50.948;10.696;2023-03-31T06:27:46;11.10;99.90
30572;DHT22;17348;50.948;10.696;2023-03-31T06:30:48;11.10;99.90
30572;DHT22;17348;50.948;10.696;2023-03-31T06:33:52;11.20;99.90
30572;DHT22;17348;50.948;10.696;2023-03-31T06:36:55;11.20;99.90
30572;DHT22;17348;50.948;10.696;2023-03-31T06:39:57;11.30;99.90
30572;DHT22;17348;50.948;10.696;2023-03-31T06:43:00;11.30;99.90
30572;DHT22;17348;50.948;10.696;2023-03-31T06:46:03;11.30;99.90
30572;DHT22;17348;50.948;10.696;2023-03-31T06:49:06;11.30;99.90
30572;DHT22;17348;50.948;10.696;2023-03-31T06:52:09;11.30;99.90
30572;DHT22;17348;50.948;10.696;2023-03-31T06:55:12;11.30;99.90
30572;DHT22;17348;50.948;10.696;2023-03-31T06:58:16;11.30;99.90
30572;DHT22;17348;50.948;10.696;2023-03-31T07:01:18;11.30;99.90
30572;DHT22;17348;50.948;10.696;2023-03-31T07:04:22;11.40;99.90
30572;DHT22;17348;50.948;10.696;2023-03-31T07:07:25;11.40;99.90
30572;DHT22;17348;50.948;10.696;2023-03-31T07:10:29;11.50;99.90
30572;DHT22;17348;50.948;10.696;2023-03-31T07:13:32;11.60;99.90
30572;DHT22;17348;50.948;10.696;2023-03-31T07:16:34;11.70;99.90
30572;DHT22;17348;50.948;10.696;2023-03-31T07:19:38;11.70;99.90
30572;DHT22;17348;50.948;10.696;2023-03-31T07:22:42;11.60;99.90
30572;DHT22;17348;50.948;10.696;2023-03-31T07:25:45;11.60;99.90
30572;DHT22;17348;50.948;10.696;2023-03-31T07:28:48;11.70;99.90
30572;DHT22;17348;50.948;10.696;2023-03-31T07:31:51;11.80;99.90
30572;DHT22;17348;50.948;10.696;2023-03-31T07:34:55;11.90;99.90
30572;DHT22;17348;50.948;10.696;2023-03-31T07:37:58;11.90;99.90
30572;DHT22;17348;50.948;10.696;2023-03-31T07:41:00;11.90;99.90
30572;DHT22;17348;50.948;10.696;2023-03-31T07:44:03;11.80;99.90
30572;DHT22;17348;50.948;10.696;2023-03-31T07:47:05;11.90;99.90
30572;DHT22;17348;50.948;10.696;2023-03-31T07:50:09;11.90;99.90
30572;DHT22;17348;50.948;10.696;2023-03-31T07:53:12;11.90;99.90
30572;DHT22;17348;50.948;10.696;2023-03-31T07:56:15;11.90;99.90
30572;DHT22;17348;50.948;10.696;2023-03-31T07:59:18;12.00;99.90
30572;DHT22;17348;50.948;10.696;2023-03-31T08:02:22;12.20;99.90
30572;DHT22;17348;50.948;10.696;2023-03-31T08:05:26;12.20;99.90
30572;DHT22;17348;50.948;10.696;2023-03-31T08:08:29;12.30;99.90
30572;DHT22;17348;50.948;10.696;2023-03-31T08:11:31;12.20;99.90
30572;DHT22;17348;50.948;10.696;2023-03-31T08:14:34;12.20;99.90
30572;DHT22;17348;50.948;10.696;2023-03-31T08:17:36;12.10;99.90
30572;DHT22;17348;50.948;10.696;2023-03-31T08:20:40;12.00;99.90
30572;DHT22;17348;50.948;10.696;2023-03-31T08:23:43;12.00;99.90
30572;DHT22;17348;50.948;10.696;2023-03-31T08:26:45;12.00;99.90
30572;DHT22;17348;50.948;10.696;2023-03-31T08:29:48;11.90;99.90
30572;DHT22;17348;50.948;10.696;2023-03-31T08:32:50;11.90;99.90
30572;DHT22;17348;50.948;10.696;2023-03-31T08:35:54;11.80;99.90
30572;DHT22;17348;50.948;10.696;2023-03-31T08:38:56;11.60;99.90
30572;DHT22;17348;50.948;10.696;2023-03-31T08:42:00;11.60;99.90
30572;DHT22;17348;50.948;10.696;2023-03-31T08:45:08;11.40;99.90
30572;DHT22;17348;50.948;10.696;2023-03-31T08:48:19;11.30;99.90
30572;DHT22;17348;50.948;10.696;2023-03-31T08:51:29;11.30;99.90
30572;DHT22;17348;50.948;10.696;2023-03-31T08:54:34;11.20;99.90
30572;DHT22;17348;50.948;10.696;2023-03-31T08:57:46;11.20;99.90
30572;DHT22;17348;50.948;10.696;2023-03-31T09:00:56;11.10;99.90
30572;DHT22;17348;50.948;10.696;2023-03-31T09:04:06;11.10;99.90
30572;DHT22;17348;50.948;10.696;2023-03-31T09:07:19;11.10;99.90
30572;DHT22;17348;50.948;10.696;2023-03-31T09:10:39;11.00;99.90
30572;DHT22;17348;50.948;10.696;2023-03-31T09:17:30;11.00;99.90
30572;DHT22;17348;50.948;10.696;2023-03-31T09:20:37;11.10;99.90
30572;DHT22;17348;50.948;10.696;2023-03-31T09:23:45;11.20;99.90
30572;DHT22;17348;50.948;10.696;2023-03-31T09:26:52;11.30;99.90
30572;DHT22;17348;50.948;10.696;2023-03-31T09:29:58;11.20;99.90
30572;DHT22;17348;50.948;10.696;2023-03-31T09:33:10;11.30;99.90
30572;DHT22;17348;50.948;10.696;2023-03-31T09:36:17;11.30;99.90
30572;DHT22;17348;50.948;10.696;2023-03-31T09:39:21;11.30;99.90
30572;DHT22;17348;50.948;10.696;2023-03-31T09:42:24;11.30;99.90
30572;DHT22;17348;50.948;10.696;2023-03-31T09:45:27;11.30;99.90
30572;DHT22;17348;50.948;10.696;2023-03-31T09:48:33;11.20;99.90
30572;DHT22;17348;50.948;10.696;2023-03-31T09:51:40;11.20;99.90
30572;DHT22;17348;50.948;10.696;2023-03-31T09:54:49;11.10;99.90
30572;DHT22;17348;50.948;10.696;2023-03-31T09:57:52;11.10;99.90
30572;DHT22;17348;50.948;10.696;2023-03-31T10:00:59;11.00;99.90
30572;DHT22;17348;50.948;10.696;2023-03-31T10:04:07;10.80;99.90
30572;DHT22;17348;50.948;10.696;2023-03-31T10:07:11;10.70;99.90
30572;DHT22;17348;50.948;10.696;2023-03-31T10:10:28;10.50;99.90
30572;DHT22;17348;50.948;10.696;2023-03-31T10:13:37;10.50;99.90
30572;DHT22;17348;50.948;10.696;2023-03-31T10:16:44;10.50;99.90
30572;DHT22;17348;50.948;10.696;2023-03-31T10:19:51;10.40;99.90
30572;DHT22;17348;50.948;10.696;2023-03-31T10:22:53;10.30;99.90
30572;DHT22;17348;50.948;10.696;2023-03-31T10:25:58;10.30;99.90
30572;DHT22;17348;50.948;10.696;2023-03-31T10:29:01;10.30;99.90
30572;DHT22;17348;50.948;10.696;2023-03-31T10:32:08;10.20;99.90
30572;DHT22;17348;50.948;10.696;2023-03-31T10:35:20;10.20;99.90
30572;DHT22;17348;50.948;10.696;2023-03-31T10:38:26;10.20;99.90
30572;DHT22;17348;50.948;10.696;2023-03-31T10:41:32;10.20;99.90
30572;DHT22;17348;50.948;10.696;2023-03-31T10:44:36;10.30;99.90
30572;DHT22;17348;50.948;10.696;2023-03-31T10:47:39;10.40;99.90
30572;DHT22;17348;50.948;10.696;2023-03-31T10:50:42;10.50;99.90
30572;DHT22;17348;50.948;10.696;2023-03-31T10:53:46;10.60;99.90
30572;DHT22;17348;50.948;10.696;2023-03-31T10:56:52;10.70;99.90
30572;DHT22;17348;50.948;10.696;2023-03-31T11:00:05;10.80;99.90
30572;DHT22;17348;50.948;10.696;2023-03-31T11:03:30;11.10;99.90
30572;DHT22;17348;50.948;10.696;2023-03-31T11:06:47;11.30;99.90
30572;DHT22;17348;50.948;10.696;2023-03-31T11:10:00;11.70;99.90
30572;DHT22;17348;50.948;10.696;2023-03-31T11:13:13;12.10;99.90
30572;DHT22;17348;50.948;10.696;2023-03-31T11:16:32;12.50;99.90
30572;DHT22;17348;50.948;10.696;2023-03-31T11:19:50;12.90;99.90
30572;DHT22;17348;50.948;10.696;2023-03-31T11:22:59;13.10;99.90
30572;DHT22;17348;50.948;10.696;2023-03-31T11:26:09;13.30;99.90
30572;DHT22;17348;50.948;10.696;2023-03-31T11:29:23;13.40;99.90
30572;DHT22;17348;50.948;10.696;2023-03-31T11:32:42;13.50;99.90
30572;DHT22;17348;50.948;10.696;2023-03-31T11:35:57;13.70;99.90
30572;DHT22;17348;50.948;10.696;2023-03-31T11:39:24;13.90;99.90
30572;DHT22;17348;50.948;10.696;2023-03-31T11:42:35;14.00;99.90
30572;DHT22;17348;50.948;10.696;2023-03-31T11:45:42;14.30;99.90
30572;DHT22;17348;50.948;10.696;2023-03-31T11:48:53;14.30;99.90
30572;DHT22;17348;50.948;10.696;2023-03-31T11:52:02;14.40;99.90
30572;DHT22;17348;50.948;10.696;2023-03-31T11:55:14;14.40;99.90
30572;DHT22;17348;50.948;10.696;2023-03-31T11:58:22;14.60;99.90
30572;DHT22;17348;50.948;10.696;2023-03-31T12:01:37;14.60;99.90
30572;DHT22;17348;50.948;10.696;2023-03-31T12:04:43;14.60;99.90
30572;DHT22;17348;50.948;10.696;2023-03-31T12:07:50;14.80;99.90
30572;DHT22;17348;50.948;10.696;2023-03-31T12:11:00;14.90;99.90
30572;DHT22;17348;50.948;10.696;2023-03-31T12:14:15;15.20;99.90
30572;DHT22;17348;50.948;10.696;2023-03-31T12:17:26;15.20;99.90
30572;DHT22;17348;50.948;10.696;2023-03-31T12:20:32;15.20;99.90
30572;DHT22;17348;50.948;10.696;2023-03-31T12:23:40;15.00;99.90
30572;DHT22;17348;50.948;10.696;2023-03-31T12:26:50;14.80;99.90
30572;DHT22;17348;50.948;10.696;2023-03-31T12:30:00;14.40;99.90
30572;DHT22;17348;50.948;10.696;2023-03-31T12:33:09;13.90;99.90
30572;DHT22;17348;50.948;10.696;2023-03-31T12:36:24;13.50;99.90
30572;DHT22;17348;50.948;10.696;2023-03-31T12:39:36;13.10;99.90
30572;DHT22;17348;50.948;10.696;2023-03-31T12:46:22;12.30;99.90
30572;DHT22;17348;50.948;10.696;2023-03-31T12:49:43;12.00;99.90
30572;DHT22;17348;50.948;10.696;2023-03-31T12:53:03;11.80;99.90
30572;DHT22;17348;50.948;10.696;2023-03-31T12:56:07;11.70;99.90
30572;DHT22;17348;50.948;10.696;2023-03-31T12:59:30;11.50;99.90
30572;DHT22;17348;50.948;10.696;2023-03-31T13:02:33;11.30;99.90
30572;DHT22;17348;50.948;10.696;2023-03-31T13:05:47;11.10;99.90
30572;DHT22;17348;50.948;10.696;2023-03-31T13:08:54;11.00;99.90
30572;DHT22;17348;50.948;10.696;2023-03-31T13:11:57;10.90;99.90
30572;DHT22;17348;50.948;10.696;2023-03-31T13:15:03;10.80;99.90
30572;DHT22;17348;50.948;10.696;2023-03-31T13:18:12;10.60;99.90
30572;DHT22;17348;50.948;10.696;2023-03-31T13:21:21;10.50;99.90
30572;DHT22;17348;50.948;10.696;2023-03-31T13:24:25;10.40;99.90
30572;DHT22;17348;50.948;10.696;2023-03-31T13:27:29;10.30;99.90
30572;DHT22;17348;50.948;10.696;2023-03-31T13:30:49;10.20;99.90
30572;DHT22;17348;50.948;10.696;2023-03-31T13:33:53;10.30;99.90
30572;DHT22;17348;50.948;10.696;2023-03-31T13:37:14;10.30;99.90
30572;DHT22;17348;50.948;10.696;2023-03-31T13:40:59;10.60;99.90
30572;DHT22;17348;50.948;10.696;2023-03-31T13:44:15;10.80;99.90
30572;DHT22;17348;50.948;10.696;2023-03-31T13:47:53;11.10;99.90
30572;DHT22;17348;50.948;10.696;2023-03-31T13:54:38;11.50;99.90
30572;DHT22;17348;50.948;10.696;2023-03-31T13:58:13;11.60;99.90
30572;DHT22;17348;50.948;10.696;2023-03-31T14:08:37;11.90;99.90
30572;DHT22;17348;50.948;10.696;2023-03-31T14:11:42;12.00;99.90
30572;DHT22;17348;50.948;10.696;2023-03-31T14:14:44;12.20;99.90
30572;DHT22;17348;50.948;10.696;2023-03-31T14:17:47;12.50;99.90
30572;DHT22;17348;50.948;10.696;2023-03-31T14:21:04;12.60;99.90
30572;DHT22;17348;50.948;10.696;2023-03-31T14:24:16;12.60;99.90
30572;DHT22;17348;50.948;10.696;2023-03-31T14:27:33;12.60;99.90
30572;DHT22;17348;50.948;10.696;2023-03-31T14:30:44;12.60;99.90
30572;DHT22;17348;50.948;10.696;2023-03-31T14:34:12;12.70;99.90
30572;DHT22;17348;50.948;10.696;2023-03-31T14:37:20;12.70;99.90
30572;DHT22;17348;50.948;10.696;2023-03-31T14:40:25;12.80;99.90
30572;DHT22;17348;50.948;10.696;2023-03-31T14:43:32;12.90;99.90
30572;DHT22;17348;50.948;10.696;2023-03-31T14:46:36;12.90;99.90
30572;DHT22;17348;50.948;10.696;2023-03-31T14:49:42;12.80;99.90
30572;DHT22;17348;50.948;10.696;2023-03-31T14:52:46;12.90;99.90
30572;DHT22;17348;50.948;10.696;2023-03-31T14:55:50;12.90;99.90
30572;DHT22;17348;50.948;10.696;2023-03-31T14:58:54;12.90;99.90
30572;DHT22;17348;50.948;10.696;2023-03-31T15:01:58;12.80;99.90
30572;DHT22;17348;50.948;10.696;2023-03-31T15:05:02;12.90;99.90
30572;DHT22;17348;50.948;10.696;2023-03-31T15:08:11;13.00;99.90
30572;DHT22;17348;50.948;10.696;2023-03-31T15:11:17;13.10;99.90
30572;DHT22;17348;50.948;10.696;2023-03-31T15:14:28;13.10;99.90
30572;DHT22;17348;50.948;10.696;2023-03-31T15:17:36;13.20;99.90
30572;DHT22;17348;50.948;10.696;2023-03-31T15:20:40;13.20;99.90
30572;DHT22;17348;50.948;10.696;2023-03-31T15:23:44;13.10;99.90
30572;DHT22;17348;50.948;10.696;2023-03-31T15:26:51;13.10;99.90
30572;DHT22;17348;50.948;10.696;2023-03-31T15:29:59;13.00;99.90
30572;DHT22;17348;50.948;10.696;2023-03-31T15:33:06;13.00;99.90
30572;DHT22;17348;50.948;10.696;2023-03-31T15:36:10;12.90;99.90
30572;DHT22;17348;50.948;10.696;2023-03-31T15:39:13;12.80;99.90
30572;DHT22;17348;50.948;10.696;2023-03-31T15:42:17;12.90;99.90
30572;DHT22;17348;50.948;10.696;2023-03-31T15:45:46;13.00;99.90
30572;DHT22;17348;50.948;10.696;2023-03-31T15:48:52;13.00;99.90
30572;DHT22;17348;50.948;10.696;2023-03-31T15:51:55;13.00;99.90
30572;DHT22;17348;50.948;10.696;2023-03-31T15:55:12;13.00;99.90
30572;DHT22;17348;50.948;10.696;2023-03-31T16:01:48;12.90;99.90
30572;DHT22;17348;50.948;10.696;2023-03-31T16:04:55;12.70;99.90
30572;DHT22;17348;50.948;10.696;2023-03-31T16:07:58;12.60;99.90
30572;DHT22;17348;50.948;10.696;2023-03-31T16:11:03;12.50;99.90
30572;DHT22;17348;50.948;10.696;2023-03-31T16:14:13;12.40;99.90
30572;DHT22;17348;50.948;10.696;2023-03-31T16:17:26;12.30;99.90
30572;DHT22;17348;50.948;10.696;2023-03-31T16:20:31;12.20;99.90
30572;DHT22;17348;50.948;10.696;2023-03-31T16:23:39;12.00;99.90
30572;DHT22;17348;50.948;10.696;2023-03-31T16:26:44;11.90;99.90
30572;DHT22;17348;50.948;10.696;2023-03-31T16:29:47;11.70;99.90
30572;DHT22;17348;50.948;10.696;2023-03-31T16:33:01;11.60;99.90
30572;DHT22;17348;50.948;10.696;2023-03-31T16:36:04;11.50;99.90
30572;DHT22;17348;50.948;10.696;2023-03-31T16:39:08;11.60;99.90
30572;DHT22;17348;50.948;10.696;2023-03-31T16:42:11;11.50;99.90
30572;DHT22;17348;50.948;10.696;2023-03-31T16:45:13;11.40;99.90
30572;DHT22;17348;50.948;10.696;2023-03-31T16:48:19;11.40;99.90
30572;DHT22;17348;50.948;10.696;2023-03-31T16:51:23;11.40;99.90
30572;DHT22;17348;50.948;10.696;2023-03-31T16:54:26;11.30;99.90
30572;DHT22;17348;50.948;10.696;2023-03-31T16:57:28;11.20;99.90
30572;DHT22;17348;50.948;10.696;2023-03-31T17:00:32;11.10;99.90
30572;DHT22;17348;50.948;10.696;2023-03-31T17:03:37;11.00;99.90
30572;DHT22;17348;50.948;10.696;2023-03-31T17:06:41;10.90;99.90
30572;DHT22;17348;50.948;10.696;2023-03-31T17:09:44;10.80;99.90
30572;DHT22;17348;50.948;10.696;2023-03-31T17:12:49;10.70;99.90
30572;DHT22;17348;50.948;10.696;2023-03-31T17:15:51;10.60;99.90
30572;DHT22;17348;50.948;10.696;2023-03-31T17:18:56;10.50;99.90
30572;DHT22;17348;50.948;10.696;2023-03-31T17:21:58;10.40;99.90
30572;DHT22;17348;50.948;10.696;2023-03-31T17:25:02;10.40;99.90
30572;DHT22;17348;50.948;10.696;2023-03-31T17:28:05;10.30;99.90
30572;DHT22;17348;50.948;10.696;2023-03-31T17:31:11;10.30;99.90
30572;DHT22;17348;50.948;10.696;2023-03-31T17:34:15;10.30;99.90
30572;DHT22;17348;50.948;10.696;2023-03-31T17:37:18;10.30;99.90
30572;DHT22;17348;50.948;10.696;2023-03-31T17:40:22;10.30;99.90
30572;DHT22;17348;50.948;10.696;2023-03-31T17:43:26;10.20;99.90
30572;DHT22;17348;50.948;10.696;2023-03-31T17:46:33;10.20;99.90
30572;DHT22;17348;50.948;10.696;2023-03-31T17:49:39;10.20;99.90
30572;DHT22;17348;50.948;10.696;2023-03-31T17:52:42;10.20;99.90
30572;DHT22;17348;50.948;10.696;2023-03-31T17:55:45;10.10;99.90
30572;DHT22;17348;50.948;10.696;2023-03-31T17:58:47;10.20;99.90
30572;DHT22;17348;50.948;10.696;2023-03-31T18:01:49;10.20;99.90
30572;DHT22;17348;50.948;10.696;2023-03-31T18:04:53;10.20;99.90
30572;DHT22;17348;50.948;10.696;2023-03-31T18:07:55;10.10;99.90
30572;DHT22;17348;50.948;10.696;2023-03-31T18:10:58;10.10;99.90
30572;DHT22;17348;50.948;10.696;2023-03-31T18:14:01;10.00;99.90
30572;DHT22;17348;50.948;10.696;2023-03-31T18:17:03;10.10;99.90
30572;DHT22;17348;50.948;10.696;2023-03-31T18:20:08;10.10;99.90
30572;DHT22;17348;50.948;10.696;2023-03-31T18:23:11;10.10;99.90
30572;DHT22;17348;50.948;10.696;2023-03-31T18:26:14;10.10;99.90
30572;DHT22;17348;50.948;10.696;2023-03-31T18:29:17;10.00;99.90
30572;DHT22;17348;50.948;10.696;2023-03-31T18:32:20;10.00;99.90
30572;DHT22;17348;50.948;10.696;2023-03-31T18:35:24;10.00;99.90
30572;DHT22;17348;50.948;10.696;2023-03-31T18:38:27;10.00;99.90
30572;DHT22;17348;50.948;10.696;2023-03-31T18:41:29;9.90;99.90
30572;DHT22;17348;50.948;10.696;2023-03-31T18:44:32;9.90;99.90
30572;DHT22;17348;50.948;10.696;2023-03-31T18:47:35;9.90;99.90
30572;DHT22;17348;50.948;10.696;2023-03-31T18:50:39;9.80;99.90
30572;DHT22;17348;50.948;10.696;2023-03-31T18:53:41;9.80;99.90
30572;DHT22;17348;50.948;10.696;2023-03-31T18:56:43;9.80;99.90
30572;DHT22;17348;50.948;10.696;2023-03-31T18:59:46;9.70;99.90
30572;DHT22;17348;50.948;10.696;2023-03-31T19:02:48;9.70;99.90
30572;DHT22;17348;50.948;10.696;2023-03-31T19:05:58;9.70;99.90
30572;DHT22;17348;50.948;10.696;2023-03-31T19:09:01;9.70;99.90
30572;DHT22;17348;50.948;10.696;2023-03-31T19:12:03;9.70;99.90
30572;DHT22;17348;50.948;10.696;2023-03-31T19:15:07;9.70;99.90
30572;DHT22;17348;50.948;10.696;2023-03-31T19:18:11;9.70;99.90
30572;DHT22;17348;50.948;10.696;2023-03-31T19:21:15;9.80;99.90
30572;DHT22;17348;50.948;10.696;2023-03-31T19:24:18;9.80;99.90
30572;DHT22;17348;50.948;10.696;2023-03-31T19:27:20;9.80;99.90
30572;DHT22;17348;50.948;10.696;2023-03-31T19:30:23;9.70;99.90
30572;DHT22;17348;50.948;10.696;2023-03-31T19:33:26;9.70;99.90
30572;DHT22;17348;50.948;10.696;2023-03-31T19:36:30;9.70;99.90
30572;DHT22;17348;50.948;10.696;2023-03-31T19:39:32;9.70;99.90
30572;DHT22;17348;50.948;10.696;2023-03-31T19:42:35;9.70;99.90
30572;DHT22;17348;50.948;10.696;2023-03-31T19:45:37;9.70;99.90
30572;DHT22;17348;50.948;10.696;2023-03-31T19:48:39;9.70;99.90